Time;durP1;ratioP1;P1;durP2;ratioP2;P2;SDS_P1;SDS_P2;PMS_P1;PMS_P2;Temp;Humidity;BMP_temperature;BMP_pressure;BME280_temperature;BME280_humidity;BME280_pressure;Samples;Min_cycle;Max_cycle;Signal;HPM_P1;HPM_P2
2023/02/18 00:02:12;;;;;;;14.97;13.33;;;11.20;99.90;;;;;;5054980;28;20487;-70
2023/02/18 00:04:39;;;;;;;16.67;13.53;;;11.20;99.90;;;;;;5056635;28;20781;-70
2023/02/18 00:07:06;;;;;;;19.23;13.93;;;11.20;99.90;;;;;;5051066;28;20845;-75
2023/02/18 00:09:33;;;;;;;17.10;13.93;;;11.20;99.90;;;;;;5056444;28;20463;-71
2023/02/18 00:12:02;;;;;;;16.90;13.87;;;11.20;99.90;;;;;;5055876;28;20470;-76
2023/02/18 00:14:30;;;;;;;23.93;14.20;;;11.20;99.90;;;;;;5054561;28;20545;-73
2023/02/18 00:16:57;;;;;;;15.07;13.47;;;11.20;99.90;;;;;;5054649;28;20996;-70
2023/02/18 00:19:24;;;;;;;16.87;14.97;;;11.10;99.90;;;;;;5053728;28;20824;-70
2023/02/18 00:21:51;;;;;;;21.17;14.80;;;11.20;99.90;;;;;;5059063;28;20466;-71
2023/02/18 00:24:18;;;;;;;20.10;16.03;;;11.10;99.90;;;;;;5050973;28;20597;-70
2023/02/18 00:26:45;;;;;;;16.43;12.83;;;11.20;99.90;;;;;;5057205;28;20463;-74
2023/02/18 00:29:15;;;;;;;17.23;14.40;;;11.20;99.90;;;;;;5057376;28;20478;-70
2023/02/18 00:31:42;;;;;;;13.27;11.27;;;11.20;99.90;;;;;;5059283;28;20462;-72
2023/02/18 00:34:11;;;;;;;18.43;13.40;;;11.20;99.90;;;;;;5056057;28;20464;-69
2023/02/18 00:36:38;;;;;;;18.53;14.23;;;11.20;99.90;;;;;;5058337;28;21155;-70
2023/02/18 00:39:06;;;;;;;17.63;13.97;;;11.10;99.90;;;;;;5062378;28;20455;-70
2023/02/18 00:41:36;;;;;;;16.80;13.40;;;11.10;99.90;;;;;;5048279;28;20517;-73
2023/02/18 00:44:03;;;;;;;15.43;12.60;;;11.10;99.90;;;;;;5055119;28;20593;-73
2023/02/18 00:46:31;;;;;;;18.37;13.70;;;11.20;99.90;;;;;;5054662;28;20493;-70
2023/02/18 00:48:58;;;;;;;22.03;14.80;;;11.10;99.90;;;;;;5052871;28;20876;-69
2023/02/18 00:51:26;;;;;;;17.13;13.83;;;11.10;99.90;;;;;;5048810;28;20795;-72
2023/02/18 00:53:53;;;;;;;15.87;12.60;;;11.10;99.90;;;;;;5062930;28;20466;-71
2023/02/18 00:56:21;;;;;;;17.90;14.20;;;11.10;99.90;;;;;;5056854;28;20458;-70
2023/02/18 00:58:49;;;;;;;16.00;12.83;;;11.10;99.90;;;;;;5052822;28;20538;-70
2023/02/18 01:01:16;;;;;;;15.80;12.10;;;11.10;99.90;;;;;;5057053;28;20463;-72
2023/02/18 01:03:45;;;;;;;19.57;12.23;;;11.00;99.90;;;;;;5054822;28;20557;-73
2023/02/18 01:06:13;;;;;;;14.07;11.73;;;11.00;99.90;;;;;;5056033;28;20500;-70
2023/02/18 01:08:40;;;;;;;15.77;13.33;;;11.00;99.90;;;;;;5053575;28;20458;-74
2023/02/18 01:11:09;;;;;;;13.57;10.27;;;11.10;99.90;;;;;;5058217;28;20675;-73
2023/02/18 01:13:38;;;;;;;18.90;12.60;;;11.10;99.90;;;;;;5054645;28;20474;-70
2023/02/18 01:16:06;;;;;;;18.77;12.23;;;11.00;99.90;;;;;;5054168;28;20455;-72
2023/02/18 01:18:32;;;;;;;14.50;11.70;;;11.00;99.90;;;;;;5057784;28;20464;-70
2023/02/18 01:21:01;;;;;;;15.70;12.10;;;11.00;99.90;;;;;;5056062;28;20467;-70
2023/02/18 01:23:28;;;;;;;14.10;11.90;;;10.90;99.90;;;;;;5048831;28;20924;-70
2023/02/18 01:25:55;;;;;;;17.77;12.77;;;11.00;99.90;;;;;;5056245;28;20513;-72
2023/02/18 01:28:24;;;;;;;17.00;11.37;;;11.00;99.90;;;;;;5057263;28;20514;-70
2023/02/18 01:30:52;;;;;;;13.67;11.20;;;10.90;99.90;;;;;;5052652;28;21052;-70
2023/02/18 01:33:18;;;;;;;14.10;11.33;;;11.00;99.90;;;;;;5050472;28;20463;-70
2023/02/18 01:35:45;;;;;;;13.13;10.13;;;11.00;99.90;;;;;;5056368;28;20999;-70
2023/02/18 01:38:13;;;;;;;14.63;11.20;;;10.90;99.90;;;;;;5058203;28;20458;-72
2023/02/18 01:40:46;;;;;;;17.07;15.00;;;10.70;99.90;;;;;;5058759;28;20853;-70
2023/02/18 01:43:14;;;;;;;15.30;13.60;;;10.70;99.90;;;;;;5060910;28;20656;-70
2023/02/18 01:45:51;;;;;;;16.97;15.27;;;10.60;99.90;;;;;;5058431;28;20863;-70
2023/02/18 01:48:24;;;;;;;18.50;16.57;;;10.60;99.90;;;;;;5054582;28;20465;-70
2023/02/18 01:50:54;;;;;;;22.60;20.13;;;10.60;99.90;;;;;;5061542;28;20470;-71
2023/02/18 01:53:28;;;;;;;26.07;23.47;;;10.60;99.90;;;;;;5063089;28;20858;-72
2023/02/18 01:55:56;;;;;;;28.20;25.40;;;10.50;99.90;;;;;;5060393;28;20457;-70
2023/02/18 01:58:23;;;;;;;25.83;23.53;;;10.50;99.90;;;;;;5057452;28;20473;-69
2023/02/18 02:00:50;;;;;;;23.73;21.53;;;10.50;99.90;;;;;;5059828;28;20550;-70
2023/02/18 02:03:17;;;;;;;26.13;24.10;;;10.60;99.90;;;;;;5061375;28;20818;-72
2023/02/18 02:05:44;;;;;;;25.60;23.07;;;10.50;99.90;;;;;;5054926;28;20470;-70
2023/02/18 02:08:11;;;;;;;25.07;22.73;;;10.50;99.90;;;;;;5065730;28;21035;-70
2023/02/18 02:10:59;;;;;;;23.57;20.93;;;10.50;99.90;;;;;;5053553;28;20467;-71
2023/02/18 02:13:35;;;;;;;27.27;24.53;;;10.60;99.90;;;;;;5059245;28;20462;-70
2023/02/18 02:16:09;;;;;;;23.47;21.57;;;10.60;99.90;;;;;;5058328;28;20859;-70
2023/02/18 02:18:50;;;;;;;25.50;23.03;;;10.50;99.90;;;;;;5058031;28;20755;-70
2023/02/18 02:21:51;;;;;;;22.40;20.40;;;10.50;99.90;;;;;;5048876;28;20460;-70
2023/02/18 02:24:57;;;;;;;24.47;22.20;;;10.50;99.90;;;;;;5057592;28;20506;-71
2023/02/18 02:27:38;;;;;;;35.17;23.43;;;10.60;99.90;;;;;;5061827;28;20470;-72
2023/02/18 02:30:41;;;;;;;25.27;21.87;;;10.50;99.90;;;;;;5055263;28;20468;-72
2023/02/18 02:33:33;;;;;;;24.20;22.20;;;10.60;99.90;;;;;;5058674;28;20470;-70
2023/02/18 02:36:10;;;;;;;23.13;21.20;;;10.50;99.90;;;;;;5049715;28;20471;-70
2023/02/18 02:38:46;;;;;;;21.60;19.77;;;10.60;99.90;;;;;;5050625;28;20957;-72
2023/02/18 02:41:21;;;;;;;22.27;20.33;;;10.60;99.90;;;;;;5061731;28;20510;-72
2023/02/18 02:43:55;;;;;;;22.17;20.17;;;10.60;99.90;;;;;;5059093;28;20490;-72
2023/02/18 02:46:30;;;;;;;20.47;18.80;;;10.60;99.90;;;;;;5053559;28;20940;-70
2023/02/18 02:49:06;;;;;;;21.33;19.33;;;10.50;99.90;;;;;;5057734;28;20475;-71
2023/02/18 02:51:39;;;;;;;21.80;19.27;;;10.60;99.90;;;;;;5054307;28;20463;-72
2023/02/18 02:54:12;;;;;;;20.03;18.37;;;10.60;99.90;;;;;;5057886;28;20514;-74
2023/02/18 02:56:38;;;;;;;19.80;18.10;;;10.60;99.90;;;;;;5060324;28;20482;-74
2023/02/18 02:59:11;;;;;;;17.50;16.00;;;10.60;99.90;;;;;;5054934;28;20472;-73
2023/02/18 03:01:49;;;;;;;18.70;17.10;;;10.60;99.90;;;;;;5057337;28;20459;-73
2023/02/18 03:04:43;;;;;;;18.70;16.90;;;10.70;99.90;;;;;;5052251;28;20494;-70
2023/02/18 03:07:36;;;;;;;21.73;19.23;;;10.60;99.90;;;;;;5056144;28;20926;-72
2023/02/18 03:10:29;;;;;;;18.90;16.90;;;10.70;99.90;;;;;;5046913;28;20465;-70
2023/02/18 03:13:05;;;;;;;19.57;15.90;;;10.60;99.90;;;;;;5058224;28;21061;-69
2023/02/18 03:15:43;;;;;;;24.13;20.97;;;10.70;99.90;;;;;;5061315;28;20978;-72
2023/02/18 03:18:19;;;;;;;24.27;18.43;;;10.70;99.90;;;;;;5057464;28;20462;-71
2023/02/18 03:20:53;;;;;;;18.87;15.73;;;10.80;99.90;;;;;;5059002;28;20531;-71
2023/02/18 03:23:26;;;;;;;16.63;14.50;;;10.70;99.90;;;;;;5051640;28;20846;-71
2023/02/18 03:25:56;;;;;;;14.03;12.70;;;10.70;99.90;;;;;;5054343;28;20471;-71
2023/02/18 03:28:26;;;;;;;11.60;10.50;;;10.70;99.90;;;;;;5053578;28;20462;-72
2023/02/18 03:30:56;;;;;;;14.03;11.87;;;10.70;99.90;;;;;;5062980;28;20556;-70
2023/02/18 03:33:27;;;;;;;13.00;11.60;;;10.80;99.90;;;;;;5053410;28;20475;-70
2023/02/18 03:35:56;;;;;;;10.20;9.37;;;10.70;99.90;;;;;;5051989;28;20451;-72
2023/02/18 03:38:29;;;;;;;9.73;8.83;;;10.80;99.90;;;;;;5052587;28;20459;-71
2023/02/18 03:40:56;;;;;;;14.30;8.93;;;10.80;99.90;;;;;;5052882;28;20510;-72
2023/02/18 03:43:23;;;;;;;7.27;6.73;;;10.70;99.90;;;;;;5055825;28;20962;-72
2023/02/18 03:45:51;;;;;;;7.57;6.97;;;10.70;99.90;;;;;;5059211;28;20486;-73
2023/02/18 03:48:18;;;;;;;8.97;8.27;;;10.80;99.90;;;;;;5051573;28;20746;-70
2023/02/18 03:50:44;;;;;;;8.17;7.50;;;10.70;99.90;;;;;;5040737;28;20473;-71
2023/02/18 03:53:11;;;;;;;7.77;7.13;;;10.80;99.90;;;;;;5060724;28;20455;-73
2023/02/18 03:55:40;;;;;;;7.93;7.23;;;10.70;99.90;;;;;;5053535;28;20861;-73
2023/02/18 03:58:06;;;;;;;7.90;7.20;;;10.70;99.90;;;;;;5055667;28;20455;-70
2023/02/18 04:00:33;;;;;;;9.30;8.40;;;10.70;99.90;;;;;;5038217;28;20543;-71
2023/02/18 04:03:00;;;;;;;8.83;8.13;;;10.70;99.90;;;;;;5051614;28;20529;-72
2023/02/18 04:05:28;;;;;;;9.93;9.20;;;10.70;99.90;;;;;;5056201;28;20856;-70
2023/02/18 04:07:56;;;;;;;15.80;14.77;;;10.60;99.90;;;;;;5058906;28;20577;-70
2023/02/18 04:10:22;;;;;;;19.17;17.97;;;10.60;99.90;;;;;;5037374;28;20467;-69
2023/02/18 04:12:51;;;;;;;18.73;17.53;;;10.50;99.90;;;;;;5049895;28;20945;-70
2023/02/18 04:15:17;;;;;;;18.77;17.57;;;10.60;99.90;;;;;;5058616;28;20463;-71
2023/02/18 04:17:44;;;;;;;18.10;17.00;;;10.40;99.90;;;;;;5054583;28;20491;-71
2023/02/18 04:20:11;;;;;;;18.00;17.00;;;10.40;99.90;;;;;;5054031;28;20775;-71
2023/02/18 04:22:38;;;;;;;15.90;15.20;;;10.40;99.90;;;;;;5051114;28;20853;-72
2023/02/18 04:25:06;;;;;;;15.07;14.47;;;10.40;99.90;;;;;;5051483;28;20943;-70
2023/02/18 04:27:32;;;;;;;15.27;14.67;;;10.40;99.90;;;;;;5052621;28;20467;-70
2023/02/18 04:30:00;;;;;;;14.93;14.33;;;10.40;99.90;;;;;;5055987;28;20534;-70
2023/02/18 04:32:27;;;;;;;16.60;15.63;;;10.40;99.90;;;;;;5051043;28;21093;-69
2023/02/18 04:34:54;;;;;;;17.87;16.87;;;10.30;99.90;;;;;;5054851;28;20467;-71
2023/02/18 04:37:21;;;;;;;17.60;16.60;;;10.30;99.90;;;;;;5059473;28;20459;-71
2023/02/18 04:39:47;;;;;;;18.40;17.30;;;10.30;99.90;;;;;;5054411;28;20468;-71
2023/02/18 04:42:14;;;;;;;18.97;17.47;;;10.40;99.90;;;;;;5050937;28;20486;-73
2023/02/18 04:44:42;;;;;;;17.07;16.17;;;10.30;99.90;;;;;;5051546;28;20944;-70
2023/02/18 04:47:10;;;;;;;17.63;16.57;;;10.30;99.90;;;;;;5053603;28;20563;-71
2023/02/18 04:49:37;;;;;;;16.70;15.70;;;10.30;99.90;;;;;;5052963;28;20478;-71
2023/02/18 04:52:04;;;;;;;17.07;15.93;;;10.30;99.90;;;;;;5051330;28;20477;-74
2023/02/18 04:54:31;;;;;;;16.37;15.07;;;10.20;99.90;;;;;;5057783;28;20475;-72
2023/02/18 04:56:58;;;;;;;16.33;15.33;;;10.10;99.90;;;;;;5054932;28;20463;-72
2023/02/18 04:59:24;;;;;;;17.83;16.43;;;10.20;99.90;;;;;;5053483;28;20471;-71
2023/02/18 05:01:52;;;;;;;15.43;14.43;;;10.20;99.90;;;;;;5049380;28;20518;-71
2023/02/18 05:04:20;;;;;;;17.17;15.97;;;10.20;99.90;;;;;;5060547;28;20518;-71
2023/02/18 05:06:46;;;;;;;15.90;15.00;;;10.20;99.90;;;;;;5053975;28;20522;-71
2023/02/18 05:09:14;;;;;;;17.60;16.30;;;10.10;99.90;;;;;;5059329;28;20849;-70
2023/02/18 05:11:41;;;;;;;18.13;16.73;;;10.20;99.90;;;;;;5056455;28;20474;-73
2023/02/18 05:14:08;;;;;;;17.13;15.93;;;10.10;99.90;;;;;;5055263;28;20470;-71
2023/02/18 05:16:35;;;;;;;16.27;15.03;;;10.10;99.90;;;;;;5048681;28;21060;-72
2023/02/18 05:19:02;;;;;;;16.50;15.40;;;10.10;99.90;;;;;;5052073;28;20485;-74
2023/02/18 05:21:30;;;;;;;16.13;15.00;;;10.10;99.90;;;;;;5056139;28;20467;-73
2023/02/18 05:23:57;;;;;;;18.07;16.53;;;10.10;99.90;;;;;;5057092;28;20470;-73
2023/02/18 05:26:24;;;;;;;18.93;16.87;;;10.10;99.90;;;;;;5048087;28;20855;-72
2023/02/18 05:28:51;;;;;;;17.07;15.70;;;10.10;99.90;;;;;;5053823;28;20994;-72
2023/02/18 05:31:18;;;;;;;16.93;15.63;;;10.10;99.90;;;;;;5064455;28;20470;-72
2023/02/18 05:33:45;;;;;;;15.90;14.77;;;10.10;99.90;;;;;;5052052;28;20517;-73
2023/02/18 05:36:12;;;;;;;17.30;15.83;;;10.00;99.90;;;;;;5055536;28;20466;-72
2023/02/18 05:38:40;;;;;;;15.77;14.70;;;10.10;99.90;;;;;;5045957;28;20462;-72
2023/02/18 05:41:06;;;;;;;14.30;13.20;;;10.10;99.90;;;;;;5051372;28;20826;-74
2023/02/18 05:44:28;;;;;;;16.20;14.70;;;10.10;99.90;;;;;;5049741;28;20486;-72
2023/02/18 05:46:21;;;;;;;16.03;14.67;;;10.10;99.90;;;;;;5052015;28;20482;-72
2023/02/18 05:48:47;;;;;;;14.00;13.00;;;10.00;99.90;;;;;;5050302;28;20464;-72
2023/02/18 05:51:14;;;;;;;15.00;13.07;;;10.10;99.90;;;;;;5054394;28;20842;-72
2023/02/18 05:53:43;;;;;;;15.10;13.90;;;10.10;99.90;;;;;;5050053;28;20571;-71
2023/02/18 05:56:10;;;;;;;13.30;12.20;;;10.10;99.90;;;;;;5052116;28;20474;-73
2023/02/18 05:58:36;;;;;;;12.10;11.20;;;10.10;99.90;;;;;;5054225;28;20467;-71
2023/02/18 06:01:03;;;;;;;11.83;10.97;;;10.10;99.90;;;;;;5050761;28;20489;-71
2023/02/18 06:03:30;;;;;;;13.13;12.23;;;10.00;99.90;;;;;;5047554;28;20463;-71
2023/02/18 06:05:57;;;;;;;13.43;12.43;;;10.10;99.90;;;;;;5057011;28;20483;-73
2023/02/18 06:08:24;;;;;;;13.37;12.57;;;10.10;99.90;;;;;;5056910;28;20489;-72
2023/02/18 06:10:52;;;;;;;13.60;12.40;;;10.10;99.90;;;;;;5054849;28;20508;-71
2023/02/18 06:13:19;;;;;;;12.60;11.70;;;10.10;99.90;;;;;;5046937;28;20464;-71
2023/02/18 06:15:46;;;;;;;13.73;12.73;;;10.10;99.90;;;;;;5051481;28;20462;-71
2023/02/18 06:18:12;;;;;;;13.27;12.37;;;10.10;99.90;;;;;;5062349;28;20942;-71
2023/02/18 06:20:39;;;;;;;11.63;10.83;;;10.20;99.90;;;;;;5054848;28;20950;-73
2023/02/18 06:23:06;;;;;;;11.77;10.97;;;10.10;99.90;;;;;;5057501;28;20617;-74
2023/02/18 06:25:33;;;;;;;11.07;10.40;;;10.10;99.90;;;;;;5059397;28;20849;-73
2023/02/18 06:28:01;;;;;;;12.30;11.50;;;10.20;99.90;;;;;;5052961;28;20447;-73
2023/02/18 06:30:27;;;;;;;12.70;11.80;;;10.10;99.90;;;;;;5058409;28;20544;-72
2023/02/18 06:32:55;;;;;;;14.30;13.30;;;10.10;99.90;;;;;;5054469;28;20458;-73
2023/02/18 06:35:21;;;;;;;14.33;13.40;;;10.20;99.90;;;;;;5061009;28;20490;-70
2023/02/18 06:37:48;;;;;;;13.07;12.10;;;10.20;99.90;;;;;;5056205;28;20460;-74
2023/02/18 06:40:17;;;;;;;12.10;11.40;;;10.20;99.90;;;;;;5060574;28;20461;-70
2023/02/18 06:42:44;;;;;;;13.50;12.60;;;10.20;99.90;;;;;;5056256;28;20606;-71
2023/02/18 06:45:12;;;;;;;12.30;11.30;;;10.20;99.90;;;;;;5047195;28;20884;-70
2023/02/18 06:47:39;;;;;;;11.00;10.27;;;10.20;99.90;;;;;;5063726;28;20455;-73
2023/02/18 06:50:07;;;;;;;12.20;11.30;;;10.30;99.90;;;;;;5058854;28;20982;-73
2023/02/18 06:52:36;;;;;;;11.87;10.97;;;10.30;99.90;;;;;;5059222;28;20478;-73
2023/02/18 06:55:04;;;;;;;8.67;8.07;;;10.30;99.90;;;;;;5058452;28;20900;-71
2023/02/18 06:57:31;;;;;;;11.20;10.20;;;10.30;99.90;;;;;;5064350;28;20629;-74
2023/02/18 06:59:57;;;;;;;9.53;8.60;;;10.30;99.90;;;;;;5053549;28;20534;-71
2023/02/18 07:02:25;;;;;;;8.40;7.70;;;10.30;99.90;;;;;;5055034;28;20467;-72
2023/02/18 07:04:52;;;;;;;8.97;8.17;;;10.30;99.90;;;;;;5047295;28;21060;-69
2023/02/18 07:07:19;;;;;;;8.87;8.17;;;10.30;99.90;;;;;;5061064;28;20841;-74
2023/02/18 07:09:46;;;;;;;8.27;7.70;;;10.40;99.90;;;;;;5059197;28;20465;-70
2023/02/18 07:12:13;;;;;;;9.17;8.50;;;10.30;99.90;;;;;;5051081;28;20460;-69
2023/02/18 07:14:40;;;;;;;12.00;11.10;;;10.30;99.90;;;;;;5059255;28;20858;-72
2023/02/18 07:17:07;;;;;;;12.70;11.80;;;10.20;99.90;;;;;;5058322;28;20451;-69
2023/02/18 07:19:35;;;;;;;12.03;11.23;;;10.20;99.90;;;;;;5058408;28;20464;-70
2023/02/18 07:22:02;;;;;;;13.20;12.30;;;10.10;99.90;;;;;;5055240;28;20459;-70
2023/02/18 07:24:29;;;;;;;11.40;10.60;;;10.20;99.90;;;;;;5056591;28;20837;-70
2023/02/18 07:26:56;;;;;;;10.40;9.70;;;10.10;99.90;;;;;;5058975;28;21009;-70
2023/02/18 07:29:22;;;;;;;12.27;11.37;;;10.20;99.90;;;;;;5057133;28;20463;-70
2023/02/18 07:31:49;;;;;;;9.83;9.13;;;10.20;99.90;;;;;;5052655;28;20459;-70
2023/02/18 07:34:16;;;;;;;9.07;8.37;;;10.20;99.90;;;;;;5054993;28;20822;-70
2023/02/18 07:36:45;;;;;;;8.03;7.43;;;10.20;99.90;;;;;;5064383;28;20469;-71
2023/02/18 07:39:12;;;;;;;9.10;8.50;;;10.20;99.90;;;;;;5054216;28;20858;-70
2023/02/18 07:41:39;;;;;;;8.87;8.27;;;10.20;99.90;;;;;;5056563;28;20842;-71
2023/02/18 07:44:06;;;;;;;8.07;7.47;;;10.30;99.90;;;;;;5057785;28;20459;-71
2023/02/18 07:46:33;;;;;;;7.33;6.83;;;10.30;99.90;;;;;;5055677;28;20687;-70
2023/02/18 07:49:00;;;;;;;7.20;6.73;;;10.20;99.90;;;;;;5058553;28;20470;-73
2023/02/18 07:51:26;;;;;;;7.47;7.07;;;10.10;99.90;;;;;;5056811;28;20473;-70
2023/02/18 07:53:54;;;;;;;9.63;9.13;;;10.00;99.90;;;;;;5057253;28;20463;-70
2023/02/18 07:56:21;;;;;;;8.50;8.00;;;9.80;99.90;;;;;;5047103;28;20475;-70
2023/02/18 07:58:48;;;;;;;8.80;8.30;;;9.70;99.90;;;;;;5057259;28;20463;-70
2023/02/18 08:01:15;;;;;;;9.30;8.63;;;9.70;99.90;;;;;;5050024;28;20685;-71
2023/02/18 08:03:43;;;;;;;9.67;8.97;;;9.70;99.90;;;;;;5051995;28;20474;-71
2023/02/18 08:06:21;;;;;;;9.27;8.63;;;9.80;99.90;;;;;;5049083;28;20503;-71
2023/02/18 08:08:48;;;;;;;9.07;8.20;;;9.80;99.90;;;;;;5061017;28;20458;-71
2023/02/18 08:11:16;;;;;;;8.47;7.63;;;9.80;99.90;;;;;;5058004;28;20474;-71
2023/02/18 08:13:43;;;;;;;11.03;8.63;;;9.90;99.90;;;;;;5057801;28;20470;-71
2023/02/18 08:16:10;;;;;;;8.80;8.00;;;9.80;99.90;;;;;;5052114;28;20467;-71
2023/02/18 08:18:37;;;;;;;8.43;7.57;;;9.90;99.90;;;;;;5056686;28;20753;-71
2023/02/18 08:21:04;;;;;;;8.43;6.77;;;9.90;99.90;;;;;;5050324;28;20463;-71
2023/02/18 08:23:30;;;;;;;16.07;7.90;;;9.90;99.90;;;;;;5058711;28;20814;-70
2023/02/18 08:25:57;;;;;;;9.10;7.07;;;9.90;99.90;;;;;;5050559;28;21063;-71
2023/02/18 08:28:26;;;;;;;8.20;7.40;;;9.80;99.90;;;;;;5050852;28;20481;-71
2023/02/18 08:30:54;;;;;;;10.67;8.20;;;9.80;99.90;;;;;;5055885;28;20842;-71
2023/02/18 08:33:22;;;;;;;11.70;8.50;;;9.80;99.90;;;;;;5052959;28;20472;-71
2023/02/18 08:35:50;;;;;;;8.30;7.33;;;10.00;99.90;;;;;;5056112;28;20475;-70
2023/02/18 08:38:17;;;;;;;10.87;9.17;;;10.10;99.90;;;;;;5051929;28;20459;-71
2023/02/18 08:40:45;;;;;;;10.40;8.30;;;10.10;99.90;;;;;;5052716;28;20820;-71
2023/02/18 08:43:12;;;;;;;14.70;8.40;;;10.10;99.90;;;;;;5051802;28;20491;-71
2023/02/18 08:45:41;;;;;;;10.10;8.43;;;10.20;99.90;;;;;;5054335;28;20510;-71
2023/02/18 08:48:08;;;;;;;9.83;8.67;;;10.20;99.90;;;;;;5061364;28;20463;-72
2023/02/18 08:50:36;;;;;;;14.30;8.87;;;10.20;99.90;;;;;;5061166;28;20467;-71
2023/02/18 08:53:04;;;;;;;19.10;9.13;;;10.20;99.90;;;;;;5057612;28;20626;-71
2023/02/18 08:55:31;;;;;;;8.80;8.10;;;10.30;99.90;;;;;;5054060;28;20469;-70
2023/02/18 08:57:58;;;;;;;10.47;9.10;;;10.30;99.90;;;;;;5053400;28;20904;-71
2023/02/18 09:00:26;;;;;;;16.63;9.20;;;10.30;99.90;;;;;;5055219;28;20843;-71
2023/02/18 09:02:54;;;;;;;12.13;9.07;;;10.30;99.90;;;;;;5047661;28;21066;-71
2023/02/18 09:05:35;;;;;;;9.90;9.07;;;10.40;99.90;;;;;;5051401;28;20471;-71
2023/02/18 09:08:02;;;;;;;14.27;9.00;;;10.40;99.90;;;;;;5045687;28;20898;-71
2023/02/18 09:10:29;;;;;;;13.97;9.60;;;10.40;99.90;;;;;;5054087;28;20839;-73
2023/02/18 09:12:56;;;;;;;18.27;9.70;;;10.50;99.90;;;;;;5044612;28;20997;-71
2023/02/18 09:15:22;;;;;;;11.87;10.40;;;10.40;99.90;;;;;;5060044;28;21028;-72
2023/02/18 09:17:49;;;;;;;14.20;11.27;;;10.50;99.90;;;;;;5052606;28;20463;-72
2023/02/18 09:20:18;;;;;;;10.50;9.47;;;10.60;99.90;;;;;;5052352;28;20462;-71
2023/02/18 09:22:44;;;;;;;10.63;9.67;;;10.60;99.90;;;;;;5054516;28;20468;-70
2023/02/18 09:25:11;;;;;;;12.50;10.17;;;10.60;99.90;;;;;;5049708;28;20462;-71
2023/02/18 09:27:38;;;;;;;19.93;9.83;;;10.70;99.90;;;;;;5056533;28;20491;-70
2023/02/18 09:30:06;;;;;;;10.63;9.47;;;10.70;99.90;;;;;;5053035;28;20463;-70
2023/02/18 09:32:33;;;;;;;18.80;9.90;;;10.60;99.90;;;;;;5053067;28;20932;-74
2023/02/18 09:35:01;;;;;;;11.43;10.07;;;10.60;99.90;;;;;;5049468;28;20818;-70
2023/02/18 09:37:29;;;;;;;17.47;10.40;;;10.60;99.90;;;;;;5056395;28;20977;-70
2023/02/18 09:39:56;;;;;;;9.37;8.77;;;10.60;99.90;;;;;;5043563;28;20470;-71
2023/02/18 09:42:28;;;;;;;12.30;10.70;;;10.70;99.90;;;;;;5046958;28;20488;-71
2023/02/18 09:44:59;;;;;;;16.13;10.10;;;10.80;99.90;;;;;;5054637;28;20474;-70
2023/02/18 09:47:32;;;;;;;16.83;11.10;;;10.90;99.90;;;;;;5055219;28;20487;-71
2023/02/18 09:50:05;;;;;;;11.80;10.57;;;10.90;99.90;;;;;;5046281;28;20483;-73
2023/02/18 09:52:36;;;;;;;12.20;11.00;;;10.90;99.90;;;;;;5056156;28;20963;-72
2023/02/18 09:55:17;;;;;;;11.63;10.37;;;10.90;99.90;;;;;;5056147;28;20972;-73
2023/02/18 09:57:46;;;;;;;15.83;11.60;;;10.80;99.90;;;;;;5061830;28;20503;-75
2023/02/18 10:00:16;;;;;;;12.00;10.37;;;10.80;99.90;;;;;;5064890;28;20470;-71
2023/02/18 10:02:53;;;;;;;13.93;10.63;;;10.80;99.90;;;;;;5055122;28;20462;-71
2023/02/18 10:05:21;;;;;;;11.70;10.50;;;10.90;99.90;;;;;;5054810;28;20473;-71
2023/02/18 10:07:53;;;;;;;11.27;10.17;;;10.80;99.90;;;;;;5059457;28;20495;-71
2023/02/18 10:10:27;;;;;;;11.47;10.07;;;10.90;99.90;;;;;;5054997;28;20460;-71
2023/02/18 10:12:54;;;;;;;10.70;9.90;;;10.80;99.90;;;;;;5063025;28;20801;-74
2023/02/18 10:15:24;;;;;;;10.50;9.70;;;10.90;99.90;;;;;;5059081;28;20478;-71
2023/02/18 10:17:52;;;;;;;15.00;10.50;;;11.00;99.90;;;;;;5051425;28;20991;-75
2023/02/18 10:20:23;;;;;;;13.13;11.13;;;10.90;99.90;;;;;;5051608;28;20456;-71
2023/02/18 10:22:54;;;;;;;11.60;10.70;;;11.00;99.90;;;;;;5055449;28;20467;-73
2023/02/18 10:25:23;;;;;;;12.10;11.10;;;11.00;99.90;;;;;;5054587;28;20876;-71
2023/02/18 10:27:52;;;;;;;17.07;10.63;;;11.00;99.90;;;;;;5058478;28;20491;-71
2023/02/18 10:30:24;;;;;;;13.17;10.53;;;10.80;99.90;;;;;;5055374;28;20475;-71
2023/02/18 10:33:00;;;;;;;11.97;10.17;;;10.80;99.90;;;;;;5052160;28;20827;-70
2023/02/18 10:35:37;;;;;;;14.23;13.03;;;10.70;99.90;;;;;;5055934;28;20484;-70
2023/02/18 10:38:12;;;;;;;24.47;22.57;;;10.50;99.90;;;;;;5057666;28;20474;-71
2023/02/18 10:40:50;;;;;;;24.53;22.47;;;10.20;99.90;;;;;;5055398;28;20462;-72
2023/02/18 10:43:25;;;;;;;23.50;21.80;;;9.90;99.90;;;;;;5055501;28;20551;-71
2023/02/18 10:45:59;;;;;;;19.33;18.13;;;9.80;99.90;;;;;;5047700;28;20801;-71
2023/02/18 10:48:38;;;;;;;22.80;20.60;;;9.70;99.90;;;;;;5059917;28;20459;-72
2023/02/18 10:51:14;;;;;;;19.47;18.17;;;9.60;99.90;;;;;;5047543;28;20471;-71
2023/02/18 10:53:45;;;;;;;21.37;19.60;;;9.70;99.90;;;;;;5060697;28;20496;-72
2023/02/18 10:56:33;;;;;;;20.33;19.00;;;9.70;99.90;;;;;;5059088;28;20613;-73
2023/02/18 10:59:06;;;;;;;19.50;17.90;;;9.70;99.90;;;;;;5058738;28;20473;-71
2023/02/18 11:01:32;;;;;;;20.17;18.40;;;9.60;99.90;;;;;;5058616;28;20475;-73
2023/02/18 11:04:07;;;;;;;17.87;16.30;;;9.60;99.90;;;;;;5062154;28;22594;-71
2023/02/18 11:06:39;;;;;;;18.40;17.00;;;9.60;99.90;;;;;;5058684;28;20490;-72
2023/02/18 11:09:18;;;;;;;19.20;17.33;;;9.60;99.90;;;;;;5063289;28;20462;-74
2023/02/18 11:11:46;;;;;;;17.93;16.73;;;9.60;99.90;;;;;;5052579;28;20459;-72
2023/02/18 11:14:17;;;;;;;18.23;17.00;;;9.70;99.90;;;;;;5058509;28;20482;-72
2023/02/18 11:16:52;;;;;;;18.27;16.97;;;9.70;99.90;;;;;;5051703;28;20463;-74
2023/02/18 11:19:33;;;;;;;17.03;15.73;;;9.70;99.90;;;;;;5058432;28;20462;-74
2023/02/18 11:22:14;;;;;;;21.70;17.17;;;9.70;99.90;;;;;;5054513;28;20933;-71
2023/02/18 11:24:47;;;;;;;18.87;17.47;;;9.70;99.90;;;;;;5054814;28;20459;-73
2023/02/18 11:27:22;;;;;;;19.10;16.70;;;9.80;99.90;;;;;;5052556;28;20486;-73
2023/02/18 11:29:52;;;;;;;15.90;14.90;;;9.70;99.90;;;;;;5065084;28;20508;-73
2023/02/18 11:32:19;;;;;;;17.03;15.50;;;9.70;99.90;;;;;;5058075;28;20458;-72
2023/02/18 11:34:47;;;;;;;16.07;14.80;;;9.70;99.90;;;;;;5047219;28;20479;-72
2023/02/18 11:37:19;;;;;;;21.13;15.97;;;9.60;99.90;;;;;;5058062;28;20458;-72
2023/02/18 11:39:49;;;;;;;17.47;16.00;;;9.60;99.90;;;;;;5062005;28;20468;-73
2023/02/18 11:42:19;;;;;;;16.17;14.90;;;9.60;99.90;;;;;;5057386;28;20755;-72
2023/02/18 11:44:52;;;;;;;17.77;15.87;;;9.70;99.90;;;;;;5053645;28;20982;-72
2023/02/18 11:47:22;;;;;;;16.43;15.00;;;9.70;99.90;;;;;;5052426;28;20511;-73
2023/02/18 11:50:15;;;;;;;16.90;15.73;;;9.70;99.90;;;;;;5054164;28;20479;-74
2023/02/18 11:52:43;;;;;;;15.57;14.43;;;9.70;99.90;;;;;;5043030;28;20862;-73
2023/02/18 11:55:17;;;;;;;15.20;13.90;;;9.70;99.90;;;;;;5055042;28;20970;-74
2023/02/18 11:57:48;;;;;;;14.00;12.93;;;9.80;99.90;;;;;;5056254;28;21024;-72
2023/02/18 12:00:25;;;;;;;15.40;14.20;;;9.90;99.90;;;;;;5054992;28;20526;-73
2023/02/18 12:02:56;;;;;;;16.57;15.37;;;9.90;99.90;;;;;;5056077;28;20458;-73
2023/02/18 12:05:26;;;;;;;15.67;14.37;;;9.90;99.90;;;;;;5057022;28;20467;-72
2023/02/18 12:07:58;;;;;;;17.63;15.87;;;9.90;99.90;;;;;;5053014;28;21169;-73
2023/02/18 12:10:30;;;;;;;16.50;15.10;;;9.90;99.90;;;;;;5059911;28;20475;-73
2023/02/18 12:13:03;;;;;;;17.10;15.70;;;9.80;99.90;;;;;;5055685;28;20482;-74
2023/02/18 12:15:42;;;;;;;15.10;14.10;;;9.80;99.90;;;;;;5046703;28;20986;-72
2023/02/18 12:18:21;;;;;;;14.87;13.87;;;9.80;99.90;;;;;;5049575;28;20469;-72
2023/02/18 12:21:17;;;;;;;15.60;14.33;;;9.80;99.90;;;;;;5051509;28;20569;-73
2023/02/18 12:23:53;;;;;;;16.07;14.60;;;9.80;99.90;;;;;;5051460;28;20554;-72
2023/02/18 12:26:27;;;;;;;15.83;14.40;;;9.80;99.90;;;;;;5056281;28;20679;-73
2023/02/18 12:29:12;;;;;;;13.90;12.87;;;9.90;99.90;;;;;;5055139;28;20458;-73
2023/02/18 12:32:08;;;;;;;14.30;12.93;;;9.70;99.90;;;;;;5057029;28;20942;-73
2023/02/18 12:34:46;;;;;;;14.07;12.53;;;9.80;99.90;;;;;;5054140;28;20931;-73
2023/02/18 12:37:31;;;;;;;13.97;12.67;;;9.90;99.90;;;;;;5050819;28;20460;-72
2023/02/18 12:40:15;;;;;;;14.03;12.63;;;9.90;99.90;;;;;;5057065;28;20459;-72
2023/02/18 12:42:55;;;;;;;14.50;13.40;;;10.00;99.90;;;;;;5053763;28;20790;-74
2023/02/18 12:45:39;;;;;;;14.50;13.60;;;10.00;99.90;;;;;;5050579;28;20989;-73
2023/02/18 12:48:18;;;;;;;15.50;14.20;;;10.10;99.90;;;;;;5054331;28;21024;-73
2023/02/18 12:50:55;;;;;;;15.63;14.50;;;10.00;99.90;;;;;;5053300;28;20478;-72